Terminal Aerodrome Forecast
Issued by NWS Charleston, WV

Current Version | Previous Version | Graphics & Text | Print | Product List | Glossary On
Versions: 1 2 3 4 5 6 7 8 9 10 11 12 13 14 15 16 17 18 19 20 21 22 23 24
000
FTUS41 KRLX 261100
TAFPKB
TAF
KPKB 261135Z 2612/2712 35005KT 4SM -SN OVC005
     FM261600 33007KT 1SM -SN OVC005
     FM262000 31008KT 6SM -SN OVC015
     FM262300 31007KT 5SM -SN BKN015=

USA.gov is the U.S. government's official web portal to all federal, state and local government web resources and services.